Time;durP1;ratioP1;P1;durP2;ratioP2;P2;SDS_P1;SDS_P2;PMS_P1;PMS_P2;Temp;Humidity;BMP_temperature;BMP_pressure;BME280_temperature;BME280_humidity;BME280_pressure;Samples;Min_cycle;Max_cycle;Signal;HPM_P1;HPM_P2
2021/03/14 00:00:16;;;;;;;3.72;1.00;;;4.20;99.90;;;;;;5015412;28;20058;-73
2021/03/14 00:02:41;;;;;;;3.30;0.90;;;4.30;99.90;;;;;;5014775;28;20853;-74
2021/03/14 00:05:08;;;;;;;2.40;0.70;;;4.20;99.90;;;;;;5014661;28;20065;-73
2021/03/14 00:07:34;;;;;;;2.65;0.75;;;4.30;99.90;;;;;;5015435;28;20538;-72
2021/03/14 00:10:00;;;;;;;2.35;0.90;;;4.30;99.90;;;;;;5015221;28;20029;-72
2021/03/14 00:12:26;;;;;;;1.13;0.80;;;4.30;99.90;;;;;;5015111;28;20120;-71
2021/03/14 00:14:51;;;;;;;2.38;0.95;;;4.40;99.90;;;;;;5014229;28;20026;-74
2021/03/14 00:17:17;;;;;;;1.33;0.85;;;4.30;99.90;;;;;;5014959;28;20526;-72
2021/03/14 00:19:43;;;;;;;1.42;1.08;;;4.40;99.90;;;;;;5014521;28;20391;-70
2021/03/14 00:22:08;;;;;;;1.15;0.90;;;4.30;99.90;;;;;;5013573;28;20060;-73
2021/03/14 00:24:34;;;;;;;2.47;0.98;;;4.40;99.90;;;;;;5014270;28;20026;-71
2021/03/14 00:26:59;;;;;;;4.40;1.35;;;4.40;99.90;;;;;;5030033;28;20116;-74
2021/03/14 00:29:25;;;;;;;2.88;1.15;;;4.40;99.90;;;;;;5014763;28;20036;-71
2021/03/14 00:31:51;;;;;;;4.15;1.00;;;4.40;99.90;;;;;;5015627;28;20061;-72
2021/03/14 00:34:17;;;;;;;2.20;1.08;;;4.40;99.90;;;;;;5029812;28;20033;-73
2021/03/14 00:36:42;;;;;;;2.47;0.90;;;4.40;99.90;;;;;;5014405;28;20034;-73
2021/03/14 00:39:08;;;;;;;1.42;0.80;;;4.30;99.90;;;;;;5013771;28;20045;-71
2021/03/14 00:41:33;;;;;;;2.40;0.80;;;4.40;99.90;;;;;;5013986;28;20080;-72
2021/03/14 00:43:59;;;;;;;1.08;0.70;;;4.30;99.90;;;;;;5029352;28;20057;-73
2021/03/14 00:46:29;;;;;;;2.83;0.80;;;4.40;99.90;;;;;;5014754;28;20034;-72
2021/03/14 00:48:54;;;;;;;1.65;0.60;;;4.50;99.90;;;;;;5032595;28;20034;-71
2021/03/14 00:51:20;;;;;;;1.05;0.85;;;4.50;99.90;;;;;;5050591;28;20056;-71
2021/03/14 00:53:46;;;;;;;2.13;0.75;;;4.60;99.90;;;;;;5015339;28;20037;-73
2021/03/14 00:56:11;;;;;;;1.30;0.65;;;4.60;99.90;;;;;;5015151;28;20025;-73
2021/03/14 00:58:37;;;;;;;2.33;0.60;;;4.70;99.90;;;;;;5014440;28;20026;-72
2021/03/14 01:01:03;;;;;;;0.77;0.55;;;4.70;99.90;;;;;;5014143;28;20068;-72
2021/03/14 01:03:28;;;;;;;1.23;0.40;;;4.40;99.90;;;;;;5013257;28;20033;-74
2021/03/14 01:05:54;;;;;;;0.40;0.40;;;4.10;99.90;;;;;;5014008;28;20536;-73
2021/03/14 01:08:20;;;;;;;1.23;0.32;;;3.90;99.90;;;;;;5014456;28;20071;-72
2021/03/14 01:10:46;;;;;;;0.55;0.40;;;3.80;99.90;;;;;;5014309;28;20018;-71
2021/03/14 01:13:11;;;;;;;0.43;0.43;;;3.70;99.90;;;;;;5013618;28;20105;-71
2021/03/14 01:15:37;;;;;;;1.50;0.40;;;3.70;99.90;;;;;;5012667;28;20026;-71
2021/03/14 01:18:04;;;;;;;0.40;0.30;;;3.70;99.90;;;;;;5013629;28;20384;-72
2021/03/14 01:20:30;;;;;;;1.23;0.40;;;3.70;99.90;;;;;;5027739;28;20029;-71
2021/03/14 01:22:56;;;;;;;0.38;0.30;;;3.70;99.90;;;;;;5013092;28;20435;-72
2021/03/14 01:25:21;;;;;;;0.52;0.43;;;3.70;99.90;;;;;;5013048;28;20033;-74
2021/03/14 01:27:47;;;;;;;0.40;0.40;;;3.60;99.90;;;;;;5013607;28;20026;-71
2021/03/14 01:30:18;;;;;;;0.45;0.30;;;3.70;99.90;;;;;;5013468;28;20396;-70
2021/03/14 01:32:45;;;;;;;0.85;0.40;;;3.60;99.90;;;;;;5012722;28;20101;-71
2021/03/14 01:35:11;;;;;;;1.45;0.43;;;3.50;99.90;;;;;;5012768;28;20029;-71
2021/03/14 01:37:37;;;;;;;0.80;0.40;;;3.50;99.90;;;;;;5013217;28;20101;-74
2021/03/14 01:40:04;;;;;;;0.75;0.40;;;3.50;99.90;;;;;;5013479;28;20106;-73
2021/03/14 01:42:31;;;;;;;0.40;0.40;;;3.50;99.90;;;;;;5013504;28;20113;-73
2021/03/14 01:44:57;;;;;;;1.13;0.57;;;3.40;99.90;;;;;;5012239;28;20030;-71
2021/03/14 01:47:34;;;;;;;1.55;0.47;;;3.50;99.90;;;;;;5013030;28;20492;-71
2021/03/14 01:50:01;;;;;;;0.65;0.50;;;3.50;99.90;;;;;;5013378;28;20492;-73
2021/03/14 01:52:27;;;;;;;0.35;0.35;;;3.40;99.90;;;;;;5012894;28;20025;-70
2021/03/14 01:54:53;;;;;;;0.90;0.63;;;3.40;99.90;;;;;;5012673;28;20036;-72
2021/03/14 01:57:19;;;;;;;0.75;0.30;;;3.40;99.90;;;;;;5013189;28;20387;-73
2021/03/14 01:59:45;;;;;;;0.35;0.35;;;3.40;99.90;;;;;;5028184;28;20022;-71
2021/03/14 02:02:11;;;;;;;1.20;0.35;;;3.50;99.90;;;;;;5013118;28;20096;-72
2021/03/14 02:04:36;;;;;;;0.40;0.40;;;3.40;99.90;;;;;;5012864;28;20060;-72
2021/03/14 02:07:02;;;;;;;0.60;0.30;;;3.50;99.90;;;;;;5018932;28;20088;-71
2021/03/14 02:09:28;;;;;;;0.30;0.30;;;3.50;99.90;;;;;;5023199;28;20030;-70
2021/03/14 02:11:59;;;;;;;1.17;0.40;;;3.50;99.90;;;;;;5026111;28;20085;-71
2021/03/14 02:14:26;;;;;;;0.98;0.20;;;3.50;99.90;;;;;;5013943;28;20029;-72
2021/03/14 02:16:52;;;;;;;0.10;0.10;;;3.50;99.90;;;;;;5018830;28;20032;-72
2021/03/14 02:19:26;;;;;;;0.40;0.20;;;3.60;99.90;;;;;;5016712;28;20534;-72
2021/03/14 02:21:52;;;;;;;1.02;0.30;;;3.40;99.90;;;;;;5012710;28;20022;-73
2021/03/14 02:24:24;;;;;;;0.15;0.15;;;3.40;99.90;;;;;;5013716;28;20040;-72
2021/03/14 02:26:58;;;;;;;0.20;0.20;;;3.40;99.90;;;;;;5013337;28;20391;-72
2021/03/14 02:29:25;;;;;;;0.20;0.20;;;3.30;99.90;;;;;;5012219;28;20026;-73
2021/03/14 02:31:53;;;;;;;0.50;0.20;;;3.40;99.90;;;;;;5012503;28;20393;-71
2021/03/14 02:34:26;;;;;;;2.30;0.40;;;3.40;99.90;;;;;;5012214;28;20030;-72
2021/03/14 02:36:54;;;;;;;0.20;0.20;;;3.40;99.90;;;;;;5012455;28;20435;-73
2021/03/14 02:39:23;;;;;;;0.20;0.20;;;3.30;99.90;;;;;;5012359;28;20026;-72
2021/03/14 02:41:54;;;;;;;0.40;0.40;;;3.30;99.90;;;;;;5012741;28;20509;-71
2021/03/14 02:44:24;;;;;;;0.30;0.30;;;3.30;99.90;;;;;;5012817;28;20053;-71
2021/03/14 02:46:51;;;;;;;0.43;0.35;;;3.30;99.90;;;;;;5010990;28;20072;-71
2021/03/14 02:49:18;;;;;;;0.50;0.38;;;3.30;99.90;;;;;;5012352;28;20116;-72
2021/03/14 02:51:44;;;;;;;0.30;0.30;;;3.30;99.90;;;;;;5011911;28;20081;-72
2021/03/14 02:54:11;;;;;;;0.90;0.60;;;3.30;99.90;;;;;;5011455;28;20449;-71
2021/03/14 02:56:37;;;;;;;0.65;0.52;;;3.30;99.90;;;;;;5011944;28;20476;-71
2021/03/14 02:59:05;;;;;;;0.40;0.40;;;3.30;99.90;;;;;;5012245;28;20049;-71
2021/03/14 03:01:31;;;;;;;0.70;0.50;;;3.30;99.90;;;;;;5011956;28;20022;-72
2021/03/14 03:03:59;;;;;;;0.50;0.50;;;3.20;99.90;;;;;;5010498;28;20022;-71
2021/03/14 03:06:26;;;;;;;0.47;0.40;;;3.20;99.90;;;;;;5011651;28;20034;-72
2021/03/14 03:08:51;;;;;;;0.43;0.32;;;3.30;99.90;;;;;;5012087;28;20037;-71
2021/03/14 03:11:18;;;;;;;0.30;0.30;;;3.30;99.90;;;;;;5012102;28;20038;-71
2021/03/14 03:13:44;;;;;;;0.30;0.30;;;3.30;99.90;;;;;;5011205;28;20037;-72
2021/03/14 03:16:14;;;;;;;0.40;0.40;;;3.30;99.90;;;;;;5011331;28;20025;-71
2021/03/14 03:18:41;;;;;;;0.30;0.30;;;3.20;99.90;;;;;;5011941;28;20025;-72
2021/03/14 03:21:09;;;;;;;1.38;0.50;;;3.10;99.90;;;;;;5011658;28;20060;-70
2021/03/14 03:23:35;;;;;;;0.45;0.45;;;3.10;99.90;;;;;;5011603;28;20030;-72
2021/03/14 03:26:01;;;;;;;0.98;0.30;;;3.10;99.90;;;;;;5012010;28;20088;-72
2021/03/14 03:28:27;;;;;;;0.30;0.30;;;3.10;99.90;;;;;;5010608;28;20026;-72
2021/03/14 03:30:53;;;;;;;0.30;0.30;;;3.10;99.90;;;;;;5011723;28;20436;-71
2021/03/14 03:33:19;;;;;;;0.40;0.40;;;3.10;99.90;;;;;;5011283;28;20033;-70
2021/03/14 03:35:45;;;;;;;0.75;0.60;;;3.00;99.90;;;;;;5012074;28;20105;-71
2021/03/14 03:38:11;;;;;;;0.30;0.30;;;3.10;99.90;;;;;;5013738;28;20020;-70
2021/03/14 03:40:37;;;;;;;0.68;0.52;;;3.10;99.90;;;;;;5050806;28;20021;-70
2021/03/14 03:43:09;;;;;;;0.43;0.43;;;3.00;99.90;;;;;;5037694;28;20030;-70
2021/03/14 03:45:38;;;;;;;0.60;0.60;;;3.10;99.90;;;;;;5014058;28;20026;-74
2021/03/14 03:48:06;;;;;;;0.65;0.40;;;3.10;99.90;;;;;;5013692;28;20034;-72
2021/03/14 03:50:36;;;;;;;0.52;0.52;;;3.00;99.90;;;;;;5016855;28;20022;-70
2021/03/14 03:53:03;;;;;;;0.95;0.50;;;3.10;99.90;;;;;;5019282;28;20030;-72
2021/03/14 03:55:29;;;;;;;0.50;0.50;;;3.00;99.90;;;;;;5015136;28;20022;-71
2021/03/14 03:57:55;;;;;;;1.33;0.82;;;3.00;99.90;;;;;;5012082;28;20022;-71
2021/03/14 04:00:22;;;;;;;1.15;0.82;;;3.10;99.90;;;;;;5011375;28;20022;-70
2021/03/14 04:02:48;;;;;;;0.80;0.70;;;3.10;99.90;;;;;;5011000;28;20433;-72
2021/03/14 04:05:15;;;;;;;1.85;0.80;;;3.10;99.90;;;;;;5011546;28;20101;-73
2021/03/14 04:07:44;;;;;;;0.73;0.60;;;3.20;99.90;;;;;;5011802;28;20037;-73
2021/03/14 04:10:14;;;;;;;2.15;0.80;;;3.20;99.90;;;;;;5016231;28;20018;-73
2021/03/14 04:12:42;;;;;;;0.60;0.60;;;3.30;99.90;;;;;;5015147;28;20022;-71
2021/03/14 04:15:12;;;;;;;1.50;0.70;;;3.40;99.90;;;;;;5013108;28;20072;-72
2021/03/14 04:17:38;;;;;;;1.05;0.60;;;3.30;99.90;;;;;;5015099;28;20138;-72
2021/03/14 04:20:09;;;;;;;0.47;0.47;;;3.40;99.90;;;;;;5015205;28;20018;-71
2021/03/14 04:22:37;;;;;;;0.95;0.43;;;3.40;99.90;;;;;;5013657;28;20038;-71
2021/03/14 04:25:04;;;;;;;1.65;0.75;;;3.30;99.90;;;;;;5029850;28;20018;-73
2021/03/14 04:27:30;;;;;;;1.27;0.80;;;3.40;99.90;;;;;;5014819;28;20380;-72
2021/03/14 04:29:57;;;;;;;1.25;0.50;;;3.50;99.90;;;;;;5014367;28;20057;-72
2021/03/14 04:32:24;;;;;;;0.38;0.38;;;3.30;99.90;;;;;;5014639;28;20025;-71
2021/03/14 04:34:51;;;;;;;0.85;0.52;;;3.40;99.90;;;;;;5013754;28;20018;-71
2021/03/14 04:37:17;;;;;;;0.40;0.40;;;3.30;99.90;;;;;;5014664;28;20025;-72
2021/03/14 04:39:44;;;;;;;0.73;0.40;;;3.40;99.90;;;;;;5014592;28;20079;-73
2021/03/14 04:42:10;;;;;;;0.52;0.40;;;3.40;99.90;;;;;;5014243;28;20041;-73
2021/03/14 04:44:37;;;;;;;0.43;0.43;;;3.40;99.90;;;;;;5013671;28;20033;-72
2021/03/14 04:47:04;;;;;;;2.25;0.40;;;3.50;99.90;;;;;;5014425;28;20026;-71
2021/03/14 04:49:30;;;;;;;2.28;0.50;;;3.50;99.90;;;;;;5014617;28;20431;-71
2021/03/14 04:51:57;;;;;;;1.65;0.38;;;3.50;99.90;;;;;;5014329;28;20057;-72
2021/03/14 04:54:23;;;;;;;2.35;0.45;;;3.50;99.90;;;;;;5013732;28;20125;-72
2021/03/14 04:56:50;;;;;;;0.50;0.38;;;3.40;99.90;;;;;;5013993;28;20038;-72
2021/03/14 04:59:17;;;;;;;0.73;0.43;;;3.50;99.90;;;;;;5014322;28;20044;-73
2021/03/14 05:01:46;;;;;;;0.57;0.50;;;3.40;99.90;;;;;;5016812;28;20049;-74
2021/03/14 05:04:14;;;;;;;0.40;0.40;;;3.40;99.90;;;;;;5019294;28;20022;-70
2021/03/14 05:06:44;;;;;;;1.20;0.70;;;3.30;99.90;;;;;;5014414;28;20523;-72
2021/03/14 05:09:13;;;;;;;0.50;0.40;;;3.20;99.90;;;;;;5014066;28;20096;-71
2021/03/14 05:11:44;;;;;;;0.40;0.40;;;3.30;99.90;;;;;;5014104;28;20075;-71
2021/03/14 05:14:11;;;;;;;0.73;0.40;;;3.20;99.90;;;;;;5013433;28;20385;-72
2021/03/14 05:16:38;;;;;;;0.52;0.20;;;3.20;99.90;;;;;;5013650;28;20026;-71
2021/03/14 05:19:06;;;;;;;0.60;0.40;;;3.30;99.90;;;;;;5013953;28;20014;-71
2021/03/14 05:21:32;;;;;;;1.30;0.40;;;3.30;99.90;;;;;;5014235;28;20393;-71
2021/03/14 05:23:59;;;;;;;0.85;0.40;;;3.40;99.90;;;;;;5012997;28;20040;-71
2021/03/14 05:26:25;;;;;;;0.70;0.40;;;3.30;99.90;;;;;;5013001;28;20022;-70
2021/03/14 05:28:54;;;;;;;0.30;0.30;;;3.30;99.90;;;;;;5013961;28;20085;-71
2021/03/14 05:31:32;;;;;;;0.40;0.40;;;3.20;99.90;;;;;;5013536;28;20045;-71
2021/03/14 05:34:01;;;;;;;0.40;0.40;;;3.30;99.90;;;;;;5013027;28;20026;-72
2021/03/14 05:36:27;;;;;;;0.30;0.30;;;3.30;99.90;;;;;;5013319;28;20480;-72
2021/03/14 05:38:55;;;;;;;0.57;0.40;;;3.40;99.90;;;;;;5013719;28;20489;-73
2021/03/14 05:41:20;;;;;;;1.65;0.30;;;3.40;99.90;;;;;;5014020;28;20635;-72
2021/03/14 05:43:47;;;;;;;0.43;0.35;;;3.40;99.90;;;;;;5024632;28;20034;-70
2021/03/14 05:46:14;;;;;;;1.48;0.40;;;3.40;99.90;;;;;;5034105;28;20041;-73
2021/03/14 05:48:42;;;;;;;1.92;0.60;;;3.40;99.90;;;;;;5030875;28;20069;-73
2021/03/14 05:51:08;;;;;;;2.65;0.85;;;3.30;99.90;;;;;;5014198;28;20021;-71
2021/03/14 05:53:38;;;;;;;0.60;0.60;;;3.30;99.90;;;;;;5024383;28;20074;-70
2021/03/14 05:56:09;;;;;;;1.67;0.75;;;3.30;99.90;;;;;;5021191;28;20116;-72
2021/03/14 05:58:39;;;;;;;1.75;0.80;;;3.20;99.90;;;;;;5013418;28;20052;-72
2021/03/14 06:01:11;;;;;;;2.47;1.35;;;3.20;99.90;;;;;;5014161;28;20076;-74
2021/03/14 06:03:37;;;;;;;3.03;1.30;;;3.20;99.90;;;;;;5014257;28;20025;-73
2021/03/14 06:06:07;;;;;;;5.25;1.60;;;3.20;99.90;;;;;;5011872;28;20560;-72
2021/03/14 06:08:34;;;;;;;1.35;1.17;;;3.20;99.90;;;;;;5013628;28;20030;-72
2021/03/14 06:11:04;;;;;;;3.33;1.33;;;3.20;99.90;;;;;;5013232;28;20378;-73
2021/03/14 06:13:30;;;;;;;1.60;1.50;;;3.10;99.90;;;;;;5012649;28;20022;-71
2021/03/14 06:15:56;;;;;;;1.60;1.25;;;3.20;99.90;;;;;;5012319;28;20034;-72
2021/03/14 06:18:22;;;;;;;3.92;1.73;;;3.10;99.90;;;;;;5012965;28;20088;-73
2021/03/14 06:20:48;;;;;;;3.30;1.60;;;3.10;99.90;;;;;;5012807;28;20026;-71
2021/03/14 06:23:16;;;;;;;2.38;1.45;;;3.10;99.90;;;;;;5012083;28;20041;-72
2021/03/14 06:25:47;;;;;;;4.95;2.30;;;3.00;99.90;;;;;;5015035;28;20106;-73
2021/03/14 06:28:14;;;;;;;2.30;1.38;;;3.00;99.90;;;;;;5031636;28;20037;-71
2021/03/14 06:30:41;;;;;;;4.32;2.30;;;3.00;99.90;;;;;;5021122;28;20061;-72
2021/03/14 06:33:12;;;;;;;4.50;1.65;;;3.00;99.90;;;;;;5027831;28;20117;-73
2021/03/14 06:35:45;;;;;;;5.03;1.52;;;3.00;99.90;;;;;;5012600;28;20485;-72
2021/03/14 06:38:29;;;;;;;;;;;3.00;99.90;;;;;;5012886;28;20104;-71
2021/03/14 06:41:01;;;;;;;4.07;1.90;;;2.90;99.90;;;;;;5012124;28;19906;-73
2021/03/14 06:43:34;;;;;;;2.17;1.60;;;3.10;99.90;;;;;;5011698;28;20503;-73
2021/03/14 06:46:00;;;;;;;4.72;1.70;;;3.10;99.90;;;;;;5012125;28;20108;-73
2021/03/14 06:48:27;;;;;;;4.25;1.88;;;3.10;99.90;;;;;;5012599;28;20034;-73
2021/03/14 06:50:53;;;;;;;5.57;2.03;;;3.10;99.90;;;;;;5026001;28;20022;-71
2021/03/14 06:53:21;;;;;;;2.30;1.55;;;3.00;99.90;;;;;;5007608;28;20511;-70
2021/03/14 06:55:49;;;;;;;6.75;1.63;;;3.20;99.90;;;;;;5010156;28;20030;-73
2021/03/14 06:58:33;;;;;;;5.28;1.70;;;3.10;99.90;;;;;;5012219;28;20473;-71
2021/03/14 07:01:15;;;;;;;3.58;1.83;;;3.10;99.90;;;;;;5013283;28;20111;-75
2021/03/14 07:03:47;;;;;;;6.18;2.05;;;3.30;99.90;;;;;;5012146;28;20105;-73
2021/03/14 07:06:20;;;;;;;8.02;2.13;;;3.40;99.90;;;;;;5013073;28;20164;-74
2021/03/14 07:08:48;;;;;;;7.93;1.90;;;3.50;99.90;;;;;;5027929;28;20025;-71
2021/03/14 07:11:46;;;;;;;8.77;1.60;;;3.70;99.90;;;;;;5012685;28;20388;-71
2021/03/14 07:14:13;;;;;;;2.15;1.50;;;3.90;99.90;;;;;;5012696;28;20033;-72
2021/03/14 07:16:41;;;;;;;5.93;1.35;;;4.10;99.90;;;;;;5018661;28;20026;-74
2021/03/14 07:19:08;;;;;;;3.22;1.45;;;4.30;99.90;;;;;;5024478;28;20018;-72
2021/03/14 07:21:33;;;;;;;2.55;1.52;;;4.40;99.90;;;;;;5009072;28;20087;-73
2021/03/14 07:23:59;;;;;;;3.72;1.30;;;4.50;99.90;;;;;;5011469;28;20559;-71
2021/03/14 07:26:39;;;;;;;6.70;1.67;;;4.60;99.90;;;;;;5023928;28;20474;-71
2021/03/14 07:29:06;;;;;;;8.63;1.70;;;5.10;99.90;;;;;;5024592;28;20034;-71
2021/03/14 07:31:33;;;;;;;2.92;1.20;;;6.00;99.90;;;;;;4992539;28;20480;-69
2021/03/14 07:34:00;;;;;;;4.18;1.30;;;6.20;99.90;;;;;;4991675;28;20034;-73
2021/03/14 07:36:25;;;;;;;2.45;0.80;;;6.00;99.90;;;;;;4992603;28;20449;-73
2021/03/14 07:38:51;;;;;;;2.42;0.98;;;5.90;99.90;;;;;;4994523;28;20060;-73
2021/03/14 07:41:17;;;;;;;3.85;1.13;;;5.80;99.90;;;;;;5011367;28;20030;-72
2021/03/14 07:43:43;;;;;;;2.00;1.13;;;5.90;99.90;;;;;;5011304;28;20044;-72
2021/03/14 07:46:09;;;;;;;5.40;1.38;;;5.80;99.90;;;;;;5012331;28;20034;-74
2021/03/14 07:48:36;;;;;;;4.93;2.22;;;5.30;99.90;;;;;;5013044;28;20053;-72
2021/03/14 07:51:02;;;;;;;6.18;1.30;;;5.10;99.90;;;;;;5016739;28;20468;-71
2021/03/14 07:53:29;;;;;;;4.55;1.30;;;4.90;99.90;;;;;;5016031;28;20030;-73
2021/03/14 07:55:58;;;;;;;5.40;1.17;;;4.80;99.90;;;;;;5018372;28;20034;-73
2021/03/14 07:58:24;;;;;;;3.13;1.25;;;4.50;99.90;;;;;;5020541;28;20582;-75
2021/03/14 08:00:50;;;;;;;4.82;1.35;;;4.50;99.90;;;;;;5018117;28;20022;-73
2021/03/14 08:03:16;;;;;;;2.60;1.17;;;4.70;99.90;;;;;;5017156;28;20552;-74
2021/03/14 08:05:47;;;;;;;1.42;0.80;;;4.90;99.90;;;;;;5018536;28;20034;-75
2021/03/14 08:08:36;;;;;;;3.80;1.58;;;5.10;99.90;;;;;;5017227;28;20053;-74
2021/03/14 08:11:01;;;;;;;1.75;0.50;;;4.80;99.90;;;;;;5026031;28;20036;-75
2021/03/14 08:13:30;;;;;;;3.85;0.70;;;4.80;99.90;;;;;;5018666;28;20535;-73
2021/03/14 08:16:01;;;;;;;1.25;0.70;;;4.90;99.90;;;;;;5015995;28;20064;-73
2021/03/14 08:18:42;;;;;;;1.35;0.50;;;5.10;99.90;;;;;;5018729;28;20097;-74
2021/03/14 08:21:31;;;;;;;1.02;0.90;;;5.20;99.90;;;;;;5018654;28;20032;-75
2021/03/14 08:23:58;;;;;;;1.83;0.88;;;5.40;99.90;;;;;;5007976;28;20412;-74
2021/03/14 08:26:25;;;;;;;0.50;0.50;;;5.90;99.90;;;;;;5030227;28;20026;-73
2021/03/14 08:29:00;;;;;;;1.20;0.60;;;6.00;99.90;;;;;;5015824;28;20021;-74
2021/03/14 08:31:59;;;;;;;1.60;0.50;;;6.40;99.90;;;;;;5015597;28;20049;-73
2021/03/14 08:34:29;;;;;;;3.67;0.95;;;6.30;99.90;;;;;;4992907;28;20061;-73
2021/03/14 08:36:55;;;;;;;5.28;1.10;;;6.50;99.90;;;;;;5016831;28;20026;-72
2021/03/14 08:39:30;;;;;;;3.58;0.80;;;6.70;99.90;;;;;;5031833;28;20400;-73
2021/03/14 08:41:58;;;;;;;4.40;1.05;;;6.90;99.90;;;;;;5016262;28;20022;-69
2021/03/14 08:44:41;;;;;;;3.90;0.70;;;7.20;99.90;;;;;;5013668;28;20021;-68
2021/03/14 08:47:11;;;;;;;1.80;0.52;;;9.10;99.90;;;;;;5014590;28;20026;-67
2021/03/14 08:49:39;;;;;;;5.72;1.17;;;9.30;99.90;;;;;;5029557;28;20030;-69
2021/03/14 08:52:06;;;;;;;5.65;1.00;;;8.50;99.90;;;;;;5014076;28;20436;-68
2021/03/14 08:54:41;;;;;;;2.58;0.80;;;8.30;99.90;;;;;;5012636;28;20029;-69
2021/03/14 08:57:09;;;;;;;1.17;0.70;;;8.40;99.90;;;;;;5014465;28;20473;-71
2021/03/14 08:59:36;;;;;;;1.65;0.80;;;9.80;99.90;;;;;;5014155;28;20024;-68
2021/03/14 09:02:03;;;;;;;2.40;1.00;;;10.00;99.90;;;;;;5013104;28;20473;-69
2021/03/14 09:04:34;;;;;;;1.35;0.75;;;9.10;99.90;;;;;;5014324;28;20029;-68
2021/03/14 09:07:11;;;;;;;2.72;0.70;;;7.10;99.90;;;;;;5014508;28;20037;-68
2021/03/14 09:09:38;;;;;;;8.07;1.15;;;7.10;99.90;;;;;;5014484;28;20022;-69
2021/03/14 09:12:11;;;;;;;2.90;0.82;;;6.90;99.90;;;;;;5014043;28;20476;-68
2021/03/14 09:14:43;;;;;;;5.43;0.60;;;7.50;99.90;;;;;;5014475;28;20037;-68
2021/03/14 09:17:16;;;;;;;3.67;0.80;;;7.80;99.90;;;;;;5040793;28;20113;-68
2021/03/14 09:19:50;;;;;;;1.48;0.68;;;7.60;99.90;;;;;;5049356;28;20026;-69
2021/03/14 09:22:21;;;;;;;3.28;0.60;;;7.50;99.90;;;;;;5028043;28;20528;-68
2021/03/14 09:24:48;;;;;;;1.57;0.60;;;7.90;99.90;;;;;;5017837;28;20030;-69
2021/03/14 09:27:27;;;;;;;1.85;0.60;;;7.60;99.90;;;;;;5045286;28;20057;-69
2021/03/14 09:30:10;;;;;;;1.05;0.50;;;7.00;99.90;;;;;;5036515;28;20111;-69
2021/03/14 09:32:43;;;;;;;0.45;0.40;;;6.60;99.90;;;;;;5030283;28;20052;-69
2021/03/14 09:35:33;;;;;;;2.20;0.50;;;6.50;99.90;;;;;;5030265;28;20443;-68
2021/03/14 09:38:04;;;;;;;3.83;0.75;;;6.30;99.90;;;;;;5018115;28;20539;-74
2021/03/14 09:40:36;;;;;;;3.72;1.88;;;6.30;99.90;;;;;;5017002;28;20050;-71
2021/03/14 09:43:24;;;;;;;5.30;2.55;;;6.30;99.90;;;;;;5013687;28;20069;-73
2021/03/14 09:45:58;;;;;;;5.90;2.20;;;6.00;99.90;;;;;;5014274;28;20034;-72
2021/03/14 09:48:25;;;;;;;3.25;0.68;;;5.90;99.90;;;;;;5013658;28;20030;-72
2021/03/14 09:51:01;;;;;;;5.47;0.70;;;5.70;99.90;;;;;;5027511;28;20073;-73
2021/03/14 09:53:31;;;;;;;1.27;0.60;;;5.80;99.90;;;;;;5022539;28;20109;-76
2021/03/14 09:55:59;;;;;;;2.00;0.70;;;5.90;99.90;;;;;;5014167;28;20026;-73
2021/03/14 09:58:26;;;;;;;3.08;1.10;;;6.10;99.90;;;;;;5011994;28;20434;-73
2021/03/14 10:00:53;;;;;;;4.60;1.27;;;6.30;99.90;;;;;;5013717;28;20033;-74
2021/03/14 10:03:30;;;;;;;1.20;0.50;;;6.70;99.90;;;;;;5012613;28;20029;-75
2021/03/14 10:06:04;;;;;;;4.57;0.75;;;6.70;99.90;;;;;;5013615;28;20057;-73
2021/03/14 10:08:38;;;;;;;2.90;0.77;;;6.70;99.90;;;;;;5013640;28;20091;-74
2021/03/14 10:11:13;;;;;;;2.03;0.70;;;7.40;99.90;;;;;;5011762;28;20392;-72
2021/03/14 10:13:40;;;;;;;3.28;0.95;;;7.80;99.90;;;;;;5013066;28;20021;-73
2021/03/14 10:16:14;;;;;;;1.55;0.60;;;7.90;99.90;;;;;;5033096;28;20053;-72
2021/03/14 10:18:40;;;;;;;2.13;0.80;;;7.30;99.90;;;;;;5018727;28;20085;-72
2021/03/14 10:21:27;;;;;;;2.38;0.90;;;7.60;99.90;;;;;;5018255;28;20097;-72
2021/03/14 10:24:23;;;;;;;2.67;0.80;;;9.80;99.90;;;;;;5033144;28;20025;-70
2021/03/14 10:26:58;;;;;;;2.15;0.70;;;10.60;99.90;;;;;;5031489;28;20033;-71
2021/03/14 10:29:36;;;;;;;5.47;2.20;;;9.80;99.90;;;;;;5035727;28;20056;-71
2021/03/14 10:32:04;;;;;;;2.75;0.80;;;8.50;99.90;;;;;;5034168;28;20120;-72
2021/03/14 10:34:29;;;;;;;10.48;1.25;;;8.10;99.90;;;;;;5022656;28;20033;-70
2021/03/14 10:36:56;;;;;;;5.35;0.82;;;8.00;99.90;;;;;;5011009;28;20033;-73
2021/03/14 10:39:24;;;;;;;1.30;0.68;;;7.70;99.90;;;;;;5016734;28;20022;-71
2021/03/14 10:41:50;;;;;;;3.92;0.75;;;7.40;99.90;;;;;;5032387;28;20425;-72
2021/03/14 10:44:21;;;;;;;3.03;0.60;;;7.50;99.90;;;;;;5011678;28;20082;-73
2021/03/14 10:46:52;;;;;;;0.95;0.80;;;8.00;99.90;;;;;;5012966;28;20033;-72
2021/03/14 10:49:23;;;;;;;1.92;0.93;;;8.50;99.90;;;;;;5012706;28;20022;-72
2021/03/14 10:51:52;;;;;;;2.75;0.63;;;8.50;99.90;;;;;;5012461;28;20033;-73
2021/03/14 10:54:18;;;;;;;4.28;1.08;;;8.10;99.90;;;;;;5010373;28;20045;-73
2021/03/14 10:56:46;;;;;;;1.83;0.57;;;7.70;99.90;;;;;;5029844;28;20255;-73
2021/03/14 10:59:38;;;;;;;2.47;0.80;;;8.00;99.90;;;;;;5012028;28;20024;-73
2021/03/14 11:02:22;;;;;;;1.67;0.50;;;8.50;99.90;;;;;;5012700;28;20034;-73
2021/03/14 11:04:58;;;;;;;2.97;0.60;;;8.60;99.90;;;;;;5010261;28;20026;-75
2021/03/14 11:07:29;;;;;;;5.68;0.60;;;8.10;99.90;;;;;;5027022;28;20033;-72
2021/03/14 11:10:08;;;;;;;3.03;1.27;;;8.20;99.90;;;;;;5026944;28;20068;-71
2021/03/14 11:12:39;;;;;;;1.30;0.73;;;9.00;99.90;;;;;;5011755;28;20029;-74
2021/03/14 11:15:06;;;;;;;1.70;0.63;;;9.60;99.90;;;;;;5011631;28;20090;-71
2021/03/14 11:17:37;;;;;;;2.78;0.80;;;9.80;99.90;;;;;;5011826;28;20030;-74
2021/03/14 11:20:07;;;;;;;2.90;0.70;;;10.40;99.90;;;;;;5011107;28;20933;-74
2021/03/14 11:22:33;;;;;;;1.63;0.70;;;10.90;99.00;;;;;;5010910;28;20566;-74
2021/03/14 11:24:59;;;;;;;1.02;0.60;;;10.90;99.60;;;;;;5010843;28;20018;-76
2021/03/14 11:27:25;;;;;;;2.83;0.90;;;10.60;97.50;;;;;;5011973;28;20021;-75
2021/03/14 11:29:51;;;;;;;3.92;0.73;;;10.30;99.80;;;;;;5013783;28;20113;-74
2021/03/14 11:32:17;;;;;;;3.30;0.90;;;10.30;98.10;;;;;;5013989;28;20061;-74
2021/03/14 11:34:44;;;;;;;3.13;0.90;;;9.90;98.10;;;;;;5013093;28;20484;-74
2021/03/14 11:37:11;;;;;;;3.42;0.80;;;8.60;99.90;;;;;;5013108;28;20464;-74
2021/03/14 11:39:37;;;;;;;2.58;0.80;;;8.60;99.90;;;;;;5014842;28;20067;-72
2021/03/14 11:42:04;;;;;;;2.28;0.77;;;8.80;99.90;;;;;;5024972;28;20041;-71
2021/03/14 11:44:30;;;;;;;3.65;0.70;;;7.60;99.90;;;;;;5022071;28;20396;-68
2021/03/14 11:46:56;;;;;;;5.70;1.15;;;8.00;99.90;;;;;;5018768;28;20026;-69
2021/03/14 11:49:22;;;;;;;2.60;0.65;;;9.60;99.90;;;;;;5030443;28;20034;-74
2021/03/14 11:51:48;;;;;;;3.45;1.20;;;10.30;99.80;;;;;;5027718;28;20041;-71
2021/03/14 11:54:17;;;;;;;3.65;1.20;;;9.40;99.90;;;;;;5022516;28;20030;-72
2021/03/14 11:56:47;;;;;;;1.45;0.65;;;8.50;99.90;;;;;;5012636;28;20503;-71
2021/03/14 11:59:13;;;;;;;5.55;0.82;;;8.50;99.90;;;;;;5011045;28;20018;-72
2021/03/14 12:01:39;;;;;;;3.58;0.90;;;7.90;99.90;;;;;;5012603;28;20022;-70
2021/03/14 12:04:05;;;;;;;2.83;0.85;;;7.80;99.90;;;;;;5011961;28;20091;-73
2021/03/14 12:06:31;;;;;;;2.47;0.70;;;7.80;99.90;;;;;;5020938;28;20033;-69
2021/03/14 12:08:57;;;;;;;2.50;1.05;;;7.80;99.90;;;;;;5021258;28;20022;-71
2021/03/14 12:11:23;;;;;;;3.95;0.98;;;7.70;99.90;;;;;;5028776;28;20037;-72
2021/03/14 12:13:49;;;;;;;2.10;0.90;;;7.80;99.90;;;;;;5030951;28;20033;-73
2021/03/14 12:16:15;;;;;;;5.82;0.63;;;7.70;99.90;;;;;;5032478;28;20025;-73
2021/03/14 12:18:41;;;;;;;2.60;0.90;;;7.50;99.90;;;;;;5046966;28;20026;-74
2021/03/14 12:21:08;;;;;;;7.32;1.52;;;7.40;99.90;;;;;;5031758;28;20685;-73
2021/03/14 12:23:36;;;;;;;3.13;0.95;;;7.00;99.90;;;;;;5030761;28;20029;-74
2021/03/14 12:26:03;;;;;;;2.92;1.30;;;6.90;99.90;;;;;;5031011;28;20049;-73
2021/03/14 12:28:29;;;;;;;4.88;0.80;;;6.90;99.90;;;;;;5032190;28;20084;-73
2021/03/14 12:30:55;;;;;;;1.75;0.90;;;6.80;99.90;;;;;;5015180;28;20030;-73
2021/03/14 12:33:20;;;;;;;3.30;0.80;;;6.50;99.90;;;;;;5011230;28;20069;-74
2021/03/14 12:35:46;;;;;;;5.13;1.13;;;6.40;99.90;;;;;;5015362;28;20026;-71
2021/03/14 12:38:12;;;;;;;7.03;0.98;;;6.40;99.90;;;;;;5015788;28;20022;-70
2021/03/14 12:40:38;;;;;;;2.42;0.98;;;6.70;99.90;;;;;;5015255;28;20421;-72
2021/03/14 12:43:04;;;;;;;5.80;1.02;;;6.60;99.90;;;;;;5014106;28;20026;-71
2021/03/14 12:45:30;;;;;;;2.90;1.00;;;6.60;99.90;;;;;;5017817;28;20500;-72
2021/03/14 12:47:55;;;;;;;5.38;1.00;;;6.70;99.90;;;;;;5023243;28;20029;-75
2021/03/14 12:50:21;;;;;;;3.53;1.05;;;6.40;99.90;;;;;;5040536;28;20030;-74
2021/03/14 12:52:47;;;;;;;3.45;1.20;;;6.50;99.90;;;;;;5023912;28;20061;-73
2021/03/14 12:55:13;;;;;;;2.88;1.00;;;6.70;99.90;;;;;;5025558;28;20499;-73
2021/03/14 12:57:39;;;;;;;4.75;0.90;;;6.80;99.90;;;;;;5025723;28;20435;-72
2021/03/14 13:00:08;;;;;;;4.70;1.30;;;7.20;99.90;;;;;;5024428;28;20029;-74
2021/03/14 13:02:34;;;;;;;4.53;1.15;;;7.60;99.90;;;;;;5025084;28;20028;-73
2021/03/14 13:05:00;;;;;;;3.08;1.10;;;7.70;99.90;;;;;;5025031;28;20034;-74